sensor_id;sensor_type;location;lat;lon;timestamp;temperature;humidity
37300;DHT22;23184;51.902;12.836;2022-08-02T00:01:33;18.20;99.90
37300;DHT22;23184;51.902;12.836;2022-08-02T00:03:59;18.20;99.90
37300;DHT22;23184;51.902;12.836;2022-08-02T00:06:24;18.20;99.90
37300;DHT22;23184;51.902;12.836;2022-08-02T00:08:50;18.20;99.90
37300;DHT22;23184;51.902;12.836;2022-08-02T00:11:16;18.20;99.90
37300;DHT22;23184;51.902;12.836;2022-08-02T00:13:41;18.20;99.90
37300;DHT22;23184;51.902;12.836;2022-08-02T00:16:07;18.20;99.90
37300;DHT22;23184;51.902;12.836;2022-08-02T00:18:32;18.20;99.90
37300;DHT22;23184;51.902;12.836;2022-08-02T00:20:58;18.10;99.90
37300;DHT22;23184;51.902;12.836;2022-08-02T00:23:23;18.10;99.90
37300;DHT22;23184;51.902;12.836;2022-08-02T00:25:49;18.00;99.90
37300;DHT22;23184;51.902;12.836;2022-08-02T00:28:14;18.00;99.90
37300;DHT22;23184;51.902;12.836;2022-08-02T00:30:40;17.90;99.90
37300;DHT22;23184;51.902;12.836;2022-08-02T00:33:05;17.80;99.90
37300;DHT22;23184;51.902;12.836;2022-08-02T00:35:33;17.80;99.90
37300;DHT22;23184;51.902;12.836;2022-08-02T00:37:58;17.70;99.90
37300;DHT22;23184;51.902;12.836;2022-08-02T00:40:24;17.70;99.90
37300;DHT22;23184;51.902;12.836;2022-08-02T00:43:05;17.60;99.90
37300;DHT22;23184;51.902;12.836;2022-08-02T00:45:33;17.60;99.90
37300;DHT22;23184;51.902;12.836;2022-08-02T00:47:59;17.60;99.90
37300;DHT22;23184;51.902;12.836;2022-08-02T00:50:25;17.50;99.90
37300;DHT22;23184;51.902;12.836;2022-08-02T00:52:51;17.50;99.90
37300;DHT22;23184;51.902;12.836;2022-08-02T00:55:17;17.40;99.90
37300;DHT22;23184;51.902;12.836;2022-08-02T00:57:42;17.40;99.90
37300;DHT22;23184;51.902;12.836;2022-08-02T01:00:08;17.30;99.90
37300;DHT22;23184;51.902;12.836;2022-08-02T01:02:34;17.30;99.90
37300;DHT22;23184;51.902;12.836;2022-08-02T01:04:59;17.20;99.90
37300;DHT22;23184;51.902;12.836;2022-08-02T01:07:25;17.20;99.90
37300;DHT22;23184;51.902;12.836;2022-08-02T01:09:51;17.20;99.90
37300;DHT22;23184;51.902;12.836;2022-08-02T01:12:17;17.20;99.90
37300;DHT22;23184;51.902;12.836;2022-08-02T01:14:45;17.20;99.90
37300;DHT22;23184;51.902;12.836;2022-08-02T01:17:29;17.20;99.90
37300;DHT22;23184;51.902;12.836;2022-08-02T01:23:20;17.20;99.90
37300;DHT22;23184;51.902;12.836;2022-08-02T01:26:00;17.20;99.90
37300;DHT22;23184;51.902;12.836;2022-08-02T01:28:53;17.20;99.90
37300;DHT22;23184;51.902;12.836;2022-08-02T01:34:20;17.10;99.90
37300;DHT22;23184;51.902;12.836;2022-08-02T01:36:51;17.10;99.90
37300;DHT22;23184;51.902;12.836;2022-08-02T01:39:22;17.10;99.90
37300;DHT22;23184;51.902;12.836;2022-08-02T01:41:49;17.10;99.90
37300;DHT22;23184;51.902;12.836;2022-08-02T01:44:18;17.10;99.90
37300;DHT22;23184;51.902;12.836;2022-08-02T01:46:47;17.10;99.90
37300;DHT22;23184;51.902;12.836;2022-08-02T01:49:16;17.10;99.90
37300;DHT22;23184;51.902;12.836;2022-08-02T01:51:46;17.20;99.90
37300;DHT22;23184;51.902;12.836;2022-08-02T01:54:32;17.20;99.90
37300;DHT22;23184;51.902;12.836;2022-08-02T01:57:00;17.30;99.90
37300;DHT22;23184;51.902;12.836;2022-08-02T01:59:28;17.30;99.90
37300;DHT22;23184;51.902;12.836;2022-08-02T02:01:57;17.30;99.90
37300;DHT22;23184;51.902;12.836;2022-08-02T02:04:26;17.40;99.90
37300;DHT22;23184;51.902;12.836;2022-08-02T02:06:53;17.30;99.90
37300;DHT22;23184;51.902;12.836;2022-08-02T02:09:20;17.40;99.90
37300;DHT22;23184;51.902;12.836;2022-08-02T02:11:47;17.40;99.90
37300;DHT22;23184;51.902;12.836;2022-08-02T02:14:15;17.40;99.90
37300;DHT22;23184;51.902;12.836;2022-08-02T02:16:44;17.40;99.90
37300;DHT22;23184;51.902;12.836;2022-08-02T02:19:11;17.40;99.90
37300;DHT22;23184;51.902;12.836;2022-08-02T02:21:37;17.40;99.90
37300;DHT22;23184;51.902;12.836;2022-08-02T02:24:03;17.40;99.90
37300;DHT22;23184;51.902;12.836;2022-08-02T02:26:30;17.30;99.90
37300;DHT22;23184;51.902;12.836;2022-08-02T02:28:58;17.30;99.90
37300;DHT22;23184;51.902;12.836;2022-08-02T02:31:26;17.20;99.90
37300;DHT22;23184;51.902;12.836;2022-08-02T02:34:10;17.20;99.90
37300;DHT22;23184;51.902;12.836;2022-08-02T02:36:38;17.10;99.90
37300;DHT22;23184;51.902;12.836;2022-08-02T02:39:06;17.00;99.90
37300;DHT22;23184;51.902;12.836;2022-08-02T02:41:32;17.00;99.90
37300;DHT22;23184;51.902;12.836;2022-08-02T02:44:00;16.90;99.90
37300;DHT22;23184;51.902;12.836;2022-08-02T02:46:29;16.90;99.90
37300;DHT22;23184;51.902;12.836;2022-08-02T02:48:55;16.80;99.90
37300;DHT22;23184;51.902;12.836;2022-08-02T02:51:22;16.80;99.90
37300;DHT22;23184;51.902;12.836;2022-08-02T02:53:49;16.70;99.90
37300;DHT22;23184;51.902;12.836;2022-08-02T02:56:15;16.80;99.90
37300;DHT22;23184;51.902;12.836;2022-08-02T02:58:42;16.80;99.90
37300;DHT22;23184;51.902;12.836;2022-08-02T03:01:09;16.80;99.90
37300;DHT22;23184;51.902;12.836;2022-08-02T03:03:54;16.90;99.90
37300;DHT22;23184;51.902;12.836;2022-08-02T03:06:20;16.90;99.90
37300;DHT22;23184;51.902;12.836;2022-08-02T03:08:46;16.90;99.90
37300;DHT22;23184;51.902;12.836;2022-08-02T03:11:12;16.90;99.90
37300;DHT22;23184;51.902;12.836;2022-08-02T03:13:38;16.90;99.90
37300;DHT22;23184;51.902;12.836;2022-08-02T03:16:04;16.90;99.90
37300;DHT22;23184;51.902;12.836;2022-08-02T03:21:01;16.90;99.90
37300;DHT22;23184;51.902;12.836;2022-08-02T03:23:27;16.90;99.90
37300;DHT22;23184;51.902;12.836;2022-08-02T03:25:53;16.80;99.90
37300;DHT22;23184;51.902;12.836;2022-08-02T03:28:19;16.80;99.90
37300;DHT22;23184;51.902;12.836;2022-08-02T03:30:44;16.80;99.90
37300;DHT22;23184;51.902;12.836;2022-08-02T03:33:10;16.90;99.90
37300;DHT22;23184;51.902;12.836;2022-08-02T03:35:36;16.90;99.90
37300;DHT22;23184;51.902;12.836;2022-08-02T03:38:04;16.90;99.90
37300;DHT22;23184;51.902;12.836;2022-08-02T03:40:30;16.90;99.90
37300;DHT22;23184;51.902;12.836;2022-08-02T03:42:56;16.90;99.90
37300;DHT22;23184;51.902;12.836;2022-08-02T03:45:23;16.90;99.90
37300;DHT22;23184;51.902;12.836;2022-08-02T03:47:50;16.90;99.90
37300;DHT22;23184;51.902;12.836;2022-08-02T03:50:17;17.00;99.90
37300;DHT22;23184;51.902;12.836;2022-08-02T03:52:44;16.90;99.90
37300;DHT22;23184;51.902;12.836;2022-08-02T03:55:11;17.00;99.90
37300;DHT22;23184;51.902;12.836;2022-08-02T03:57:38;17.00;99.90
37300;DHT22;23184;51.902;12.836;2022-08-02T04:00:06;17.00;99.90
37300;DHT22;23184;51.902;12.836;2022-08-02T04:02:31;17.00;99.90
37300;DHT22;23184;51.902;12.836;2022-08-02T04:04:57;17.00;99.90
37300;DHT22;23184;51.902;12.836;2022-08-02T04:07:22;17.10;99.90
37300;DHT22;23184;51.902;12.836;2022-08-02T04:09:48;17.10;99.90
37300;DHT22;23184;51.902;12.836;2022-08-02T04:12:13;17.20;99.90
37300;DHT22;23184;51.902;12.836;2022-08-02T04:14:39;17.20;99.90
37300;DHT22;23184;51.902;12.836;2022-08-02T04:17:07;17.20;99.90
37300;DHT22;23184;51.902;12.836;2022-08-02T04:19:37;17.20;99.90
37300;DHT22;23184;51.902;12.836;2022-08-02T04:22:06;17.20;99.90
37300;DHT22;23184;51.902;12.836;2022-08-02T04:24:43;17.20;99.90
37300;DHT22;23184;51.902;12.836;2022-08-02T04:27:11;17.30;99.90
37300;DHT22;23184;51.902;12.836;2022-08-02T04:29:37;17.30;99.90
37300;DHT22;23184;51.902;12.836;2022-08-02T04:32:04;17.30;99.90
37300;DHT22;23184;51.902;12.836;2022-08-02T04:34:30;17.40;99.90
37300;DHT22;23184;51.902;12.836;2022-08-02T04:36:57;17.40;99.90
37300;DHT22;23184;51.902;12.836;2022-08-02T04:39:23;17.40;99.90
37300;DHT22;23184;51.902;12.836;2022-08-02T04:41:48;17.50;99.90
37300;DHT22;23184;51.902;12.836;2022-08-02T04:44:14;17.50;99.90
37300;DHT22;23184;51.902;12.836;2022-08-02T04:46:40;17.50;99.90
37300;DHT22;23184;51.902;12.836;2022-08-02T04:49:07;17.60;99.90
37300;DHT22;23184;51.902;12.836;2022-08-02T04:51:37;17.60;99.90
37300;DHT22;23184;51.902;12.836;2022-08-02T04:54:03;17.60;99.90
37300;DHT22;23184;51.902;12.836;2022-08-02T04:56:29;17.70;99.90
37300;DHT22;23184;51.902;12.836;2022-08-02T04:58:54;17.80;99.90
37300;DHT22;23184;51.902;12.836;2022-08-02T05:01:20;17.80;99.90
37300;DHT22;23184;51.902;12.836;2022-08-02T05:03:45;17.90;99.90
37300;DHT22;23184;51.902;12.836;2022-08-02T05:06:11;17.90;99.90
37300;DHT22;23184;51.902;12.836;2022-08-02T05:08:36;18.00;99.90
37300;DHT22;23184;51.902;12.836;2022-08-02T05:11:02;18.00;99.90
37300;DHT22;23184;51.902;12.836;2022-08-02T05:13:27;18.00;99.90
37300;DHT22;23184;51.902;12.836;2022-08-02T05:15:52;18.00;99.90
37300;DHT22;23184;51.902;12.836;2022-08-02T05:18:18;17.90;99.90
37300;DHT22;23184;51.902;12.836;2022-08-02T05:20:44;18.00;99.90
37300;DHT22;23184;51.902;12.836;2022-08-02T05:23:09;18.00;99.90
37300;DHT22;23184;51.902;12.836;2022-08-02T05:25:35;18.00;99.90
37300;DHT22;23184;51.902;12.836;2022-08-02T05:28:00;18.00;99.90
37300;DHT22;23184;51.902;12.836;2022-08-02T05:30:26;18.10;99.90
37300;DHT22;23184;51.902;12.836;2022-08-02T05:32:51;18.10;99.90
37300;DHT22;23184;51.902;12.836;2022-08-02T05:35:19;18.10;99.90
37300;DHT22;23184;51.902;12.836;2022-08-02T05:37:45;18.20;99.90
37300;DHT22;23184;51.902;12.836;2022-08-02T05:40:11;18.20;99.90
37300;DHT22;23184;51.902;12.836;2022-08-02T05:42:36;18.30;99.90
37300;DHT22;23184;51.902;12.836;2022-08-02T05:45:03;18.40;99.90
37300;DHT22;23184;51.902;12.836;2022-08-02T05:47:28;18.40;99.90
37300;DHT22;23184;51.902;12.836;2022-08-02T05:49:54;18.40;99.90
37300;DHT22;23184;51.902;12.836;2022-08-02T05:52:20;18.50;99.90
37300;DHT22;23184;51.902;12.836;2022-08-02T05:54:59;18.60;99.90
37300;DHT22;23184;51.902;12.836;2022-08-02T06:00:11;18.80;99.90
37300;DHT22;23184;51.902;12.836;2022-08-02T06:03:04;18.80;99.90
37300;DHT22;23184;51.902;12.836;2022-08-02T06:05:34;19.00;99.90
37300;DHT22;23184;51.902;12.836;2022-08-02T06:08:03;19.20;99.90
37300;DHT22;23184;51.902;12.836;2022-08-02T06:10:32;19.50;99.90
37300;DHT22;23184;51.902;12.836;2022-08-02T06:13:06;19.90;99.90
37300;DHT22;23184;51.902;12.836;2022-08-02T06:15:33;20.10;99.90
37300;DHT22;23184;51.902;12.836;2022-08-02T06:18:00;20.40;99.90
37300;DHT22;23184;51.902;12.836;2022-08-02T06:20:26;20.60;99.90
37300;DHT22;23184;51.902;12.836;2022-08-02T06:23:00;20.80;99.90
37300;DHT22;23184;51.902;12.836;2022-08-02T06:25:26;20.90;99.90
37300;DHT22;23184;51.902;12.836;2022-08-02T06:27:53;21.10;99.90
37300;DHT22;23184;51.902;12.836;2022-08-02T06:30:19;21.20;99.90
37300;DHT22;23184;51.902;12.836;2022-08-02T06:32:44;21.30;99.90
37300;DHT22;23184;51.902;12.836;2022-08-02T06:35:10;21.30;99.90
37300;DHT22;23184;51.902;12.836;2022-08-02T06:37:43;21.60;99.90
37300;DHT22;23184;51.902;12.836;2022-08-02T06:40:35;21.60;99.90
37300;DHT22;23184;51.902;12.836;2022-08-02T06:43:10;21.60;99.90
37300;DHT22;23184;51.902;12.836;2022-08-02T06:45:37;21.80;99.90
37300;DHT22;23184;51.902;12.836;2022-08-02T06:48:04;21.90;99.90
37300;DHT22;23184;51.902;12.836;2022-08-02T06:50:30;22.00;99.90
37300;DHT22;23184;51.902;12.836;2022-08-02T06:52:55;22.10;99.90
37300;DHT22;23184;51.902;12.836;2022-08-02T06:55:21;22.30;99.90
37300;DHT22;23184;51.902;12.836;2022-08-02T06:57:46;22.50;99.90
37300;DHT22;23184;51.902;12.836;2022-08-02T07:00:12;22.60;99.90
37300;DHT22;23184;51.902;12.836;2022-08-02T07:02:38;22.70;99.90
37300;DHT22;23184;51.902;12.836;2022-08-02T07:05:05;22.90;99.90
37300;DHT22;23184;51.902;12.836;2022-08-02T07:07:31;23.30;99.90
37300;DHT22;23184;51.902;12.836;2022-08-02T07:09:58;23.70;99.90
37300;DHT22;23184;51.902;12.836;2022-08-02T07:12:24;24.10;99.90
37300;DHT22;23184;51.902;12.836;2022-08-02T07:14:49;24.30;99.90
37300;DHT22;23184;51.902;12.836;2022-08-02T07:17:15;24.80;99.90
37300;DHT22;23184;51.902;12.836;2022-08-02T07:19:40;25.20;99.90
37300;DHT22;23184;51.902;12.836;2022-08-02T07:22:06;25.20;99.90
37300;DHT22;23184;51.902;12.836;2022-08-02T07:24:31;25.20;99.90
37300;DHT22;23184;51.902;12.836;2022-08-02T07:26:57;25.10;99.90
37300;DHT22;23184;51.902;12.836;2022-08-02T07:29:23;25.00;99.90
37300;DHT22;23184;51.902;12.836;2022-08-02T07:31:49;25.00;99.90
37300;DHT22;23184;51.902;12.836;2022-08-02T07:34:14;25.10;99.90
37300;DHT22;23184;51.902;12.836;2022-08-02T07:36:40;25.20;99.90
37300;DHT22;23184;51.902;12.836;2022-08-02T07:39:05;25.40;99.90
37300;DHT22;23184;51.902;12.836;2022-08-02T07:41:31;25.60;99.90
37300;DHT22;23184;51.902;12.836;2022-08-02T07:43:56;26.20;99.90
37300;DHT22;23184;51.902;12.836;2022-08-02T07:46:22;26.40;99.90
37300;DHT22;23184;51.902;12.836;2022-08-02T07:48:47;26.60;99.90
37300;DHT22;23184;51.902;12.836;2022-08-02T07:51:14;26.90;99.90
37300;DHT22;23184;51.902;12.836;2022-08-02T07:53:39;26.80;99.90
37300;DHT22;23184;51.902;12.836;2022-08-02T07:56:05;26.90;99.90
37300;DHT22;23184;51.902;12.836;2022-08-02T07:58:30;26.60;99.90
37300;DHT22;23184;51.902;12.836;2022-08-02T08:00:56;26.50;99.90
37300;DHT22;23184;51.902;12.836;2022-08-02T08:03:21;26.60;99.90
37300;DHT22;23184;51.902;12.836;2022-08-02T08:05:47;26.50;99.90
37300;DHT22;23184;51.902;12.836;2022-08-02T08:08:12;26.90;99.90
37300;DHT22;23184;51.902;12.836;2022-08-02T08:10:39;27.30;99.90
37300;DHT22;23184;51.902;12.836;2022-08-02T08:13:05;27.30;99.90
37300;DHT22;23184;51.902;12.836;2022-08-02T08:15:31;27.40;99.90
37300;DHT22;23184;51.902;12.836;2022-08-02T08:17:56;27.90;99.90
37300;DHT22;23184;51.902;12.836;2022-08-02T08:20:22;28.10;99.90
37300;DHT22;23184;51.902;12.836;2022-08-02T08:22:47;28.40;99.90
37300;DHT22;23184;51.902;12.836;2022-08-02T08:25:13;28.70;99.90
37300;DHT22;23184;51.902;12.836;2022-08-02T08:27:47;28.20;99.90
37300;DHT22;23184;51.902;12.836;2022-08-02T08:30:13;26.20;99.90
37300;DHT22;23184;51.902;12.836;2022-08-02T08:32:38;27.20;99.90
37300;DHT22;23184;51.902;12.836;2022-08-02T08:35:04;27.60;99.90
37300;DHT22;23184;51.902;12.836;2022-08-02T08:37:35;26.10;99.90
37300;DHT22;23184;51.902;12.836;2022-08-02T08:40:03;25.90;99.90
37300;DHT22;23184;51.902;12.836;2022-08-02T08:42:30;26.80;99.90
37300;DHT22;23184;51.902;12.836;2022-08-02T08:44:57;27.00;99.90
37300;DHT22;23184;51.902;12.836;2022-08-02T08:47:23;26.80;99.90
37300;DHT22;23184;51.902;12.836;2022-08-02T08:49:54;26.50;99.90
37300;DHT22;23184;51.902;12.836;2022-08-02T08:52:22;26.50;99.90
37300;DHT22;23184;51.902;12.836;2022-08-02T08:54:50;26.00;99.90
37300;DHT22;23184;51.902;12.836;2022-08-02T08:57:17;24.80;99.90
37300;DHT22;23184;51.902;12.836;2022-08-02T08:59:44;24.20;99.90
37300;DHT22;23184;51.902;12.836;2022-08-02T09:02:10;24.10;99.90
37300;DHT22;23184;51.902;12.836;2022-08-02T09:04:36;25.20;99.90
37300;DHT22;23184;51.902;12.836;2022-08-02T09:07:02;25.70;99.90
37300;DHT22;23184;51.902;12.836;2022-08-02T09:09:27;27.20;99.90
37300;DHT22;23184;51.902;12.836;2022-08-02T09:11:53;26.90;99.90
37300;DHT22;23184;51.902;12.836;2022-08-02T09:14:26;27.90;99.90
37300;DHT22;23184;51.902;12.836;2022-08-02T09:16:52;28.70;99.90
37300;DHT22;23184;51.902;12.836;2022-08-02T09:19:20;29.00;99.90
37300;DHT22;23184;51.902;12.836;2022-08-02T09:21:48;28.70;99.90
37300;DHT22;23184;51.902;12.836;2022-08-02T09:24:16;28.40;99.90
37300;DHT22;23184;51.902;12.836;2022-08-02T09:26:42;28.60;99.90
37300;DHT22;23184;51.902;12.836;2022-08-02T09:29:08;29.00;99.90
37300;DHT22;23184;51.902;12.836;2022-08-02T09:31:34;29.50;99.90
37300;DHT22;23184;51.902;12.836;2022-08-02T09:34:00;30.60;99.90
37300;DHT22;23184;51.902;12.836;2022-08-02T09:36:36;29.10;99.90
37300;DHT22;23184;51.902;12.836;2022-08-02T09:39:04;28.60;99.90
37300;DHT22;23184;51.902;12.836;2022-08-02T09:41:31;28.70;99.90
37300;DHT22;23184;51.902;12.836;2022-08-02T09:43:58;29.00;99.90
37300;DHT22;23184;51.902;12.836;2022-08-02T09:46:26;28.30;99.90
37300;DHT22;23184;51.902;12.836;2022-08-02T09:52:09;29.70;99.90
37300;DHT22;23184;51.902;12.836;2022-08-02T09:54:22;28.60;99.90
37300;DHT22;23184;51.902;12.836;2022-08-02T09:56:53;28.90;99.90
37300;DHT22;23184;51.902;12.836;2022-08-02T09:59:20;30.60;99.90
37300;DHT22;23184;51.902;12.836;2022-08-02T10:01:48;32.10;98.30
37300;DHT22;23184;51.902;12.836;2022-08-02T10:04:14;31.40;95.90
37300;DHT22;23184;51.902;12.836;2022-08-02T10:06:43;30.60;95.80
37300;DHT22;23184;51.902;12.836;2022-08-02T10:09:09;29.70;98.30
37300;DHT22;23184;51.902;12.836;2022-08-02T10:11:35;28.40;98.10
37300;DHT22;23184;51.902;12.836;2022-08-02T10:14:05;29.10;97.00
37300;DHT22;23184;51.902;12.836;2022-08-02T10:16:33;28.60;99.30
37300;DHT22;23184;51.902;12.836;2022-08-02T10:18:59;29.30;99.00
37300;DHT22;23184;51.902;12.836;2022-08-02T10:21:35;29.30;98.30
37300;DHT22;23184;51.902;12.836;2022-08-02T10:24:05;28.70;98.50
37300;DHT22;23184;51.902;12.836;2022-08-02T10:26:32;28.40;98.90
37300;DHT22;23184;51.902;12.836;2022-08-02T10:28:57;28.60;97.90
37300;DHT22;23184;51.902;12.836;2022-08-02T10:31:27;29.00;98.80
37300;DHT22;23184;51.902;12.836;2022-08-02T10:33:57;28.80;96.60
37300;DHT22;23184;51.902;12.836;2022-08-02T10:36:23;28.90;96.50
37300;DHT22;23184;51.902;12.836;2022-08-02T10:38:53;28.20;96.60
37300;DHT22;23184;51.902;12.836;2022-08-02T10:41:47;29.10;98.20
37300;DHT22;23184;51.902;12.836;2022-08-02T10:44:21;29.50;98.50
37300;DHT22;23184;51.902;12.836;2022-08-02T10:46:47;29.60;97.00
37300;DHT22;23184;51.902;12.836;2022-08-02T10:49:20;29.30;96.00
37300;DHT22;23184;51.902;12.836;2022-08-02T10:56:58;32.60;94.40
37300;DHT22;23184;51.902;12.836;2022-08-02T10:59:25;30.80;91.90
37300;DHT22;23184;51.902;12.836;2022-08-02T11:01:51;30.70;91.50
37300;DHT22;23184;51.902;12.836;2022-08-02T11:04:21;32.00;90.40
37300;DHT22;23184;51.902;12.836;2022-08-02T11:07:06;31.80;90.50
37300;DHT22;23184;51.902;12.836;2022-08-02T11:09:31;31.00;90.70
37300;DHT22;23184;51.902;12.836;2022-08-02T11:14:27;31.70;90.00
37300;DHT22;23184;51.902;12.836;2022-08-02T11:19:25;32.10;89.80
37300;DHT22;23184;51.902;12.836;2022-08-02T11:22:04;33.20;90.10
37300;DHT22;23184;51.902;12.836;2022-08-02T11:24:35;31.90;85.70
37300;DHT22;23184;51.902;12.836;2022-08-02T11:27:23;31.70;87.50
37300;DHT22;23184;51.902;12.836;2022-08-02T11:29:48;31.30;84.80
37300;DHT22;23184;51.902;12.836;2022-08-02T11:32:22;33.20;82.60
37300;DHT22;23184;51.902;12.836;2022-08-02T11:34:52;34.80;80.00
37300;DHT22;23184;51.902;12.836;2022-08-02T11:37:33;36.10;75.70
37300;DHT22;23184;51.902;12.836;2022-08-02T11:40:07;37.50;72.00
37300;DHT22;23184;51.902;12.836;2022-08-02T11:42:38;37.80;67.90
37300;DHT22;23184;51.902;12.836;2022-08-02T11:45:08;36.60;65.90
37300;DHT22;23184;51.902;12.836;2022-08-02T11:47:51;34.40;64.70
37300;DHT22;23184;51.902;12.836;2022-08-02T11:50:17;33.10;68.00
37300;DHT22;23184;51.902;12.836;2022-08-02T11:52:45;31.80;72.20
37300;DHT22;23184;51.902;12.836;2022-08-02T11:55:11;31.80;74.00
37300;DHT22;23184;51.902;12.836;2022-08-02T11:57:38;31.00;74.10
37300;DHT22;23184;51.902;12.836;2022-08-02T12:00:14;31.50;72.60
37300;DHT22;23184;51.902;12.836;2022-08-02T12:02:45;32.70;72.50
37300;DHT22;23184;51.902;12.836;2022-08-02T12:05:15;33.90;71.90
37300;DHT22;23184;51.902;12.836;2022-08-02T12:07:41;35.10;70.70
37300;DHT22;23184;51.902;12.836;2022-08-02T12:10:10;34.80;68.10
37300;DHT22;23184;51.902;12.836;2022-08-02T12:12:50;36.30;67.40
37300;DHT22;23184;51.902;12.836;2022-08-02T12:15:28;37.60;64.90
37300;DHT22;23184;51.902;12.836;2022-08-02T12:17:54;34.80;64.60
37300;DHT22;23184;51.902;12.836;2022-08-02T12:20:38;34.30;66.90
37300;DHT22;23184;51.902;12.836;2022-08-02T12:23:04;33.50;65.80
37300;DHT22;23184;51.902;12.836;2022-08-02T12:25:30;31.20;69.00
37300;DHT22;23184;51.902;12.836;2022-08-02T12:28:12;30.80;72.10
37300;DHT22;23184;51.902;12.836;2022-08-02T12:30:53;31.50;73.40
37300;DHT22;23184;51.902;12.836;2022-08-02T12:33:20;32.80;71.90
37300;DHT22;23184;51.902;12.836;2022-08-02T12:35:46;32.10;74.50
37300;DHT22;23184;51.902;12.836;2022-08-02T12:38:12;32.70;72.80
37300;DHT22;23184;51.902;12.836;2022-08-02T12:40:38;34.70;69.60
37300;DHT22;23184;51.902;12.836;2022-08-02T12:43:05;35.10;65.50
37300;DHT22;23184;51.902;12.836;2022-08-02T12:45:46;34.30;64.00
37300;DHT22;23184;51.902;12.836;2022-08-02T12:48:13;33.00;65.30
37300;DHT22;23184;51.902;12.836;2022-08-02T12:50:38;32.40;67.60
37300;DHT22;23184;51.902;12.836;2022-08-02T12:55:31;33.60;65.60
37300;DHT22;23184;51.902;12.836;2022-08-02T12:57:59;34.50;64.20
37300;DHT22;23184;51.902;12.836;2022-08-02T13:00:32;33.40;66.00
37300;DHT22;23184;51.902;12.836;2022-08-02T13:02:59;35.10;64.30
37300;DHT22;23184;51.902;12.836;2022-08-02T13:05:26;36.30;62.20
37300;DHT22;23184;51.902;12.836;2022-08-02T13:07:53;37.90;62.00
37300;DHT22;23184;51.902;12.836;2022-08-02T13:10:19;39.30;60.10
37300;DHT22;23184;51.902;12.836;2022-08-02T13:12:45;40.00;56.70
37300;DHT22;23184;51.902;12.836;2022-08-02T13:15:10;37.40;56.30
37300;DHT22;23184;51.902;12.836;2022-08-02T13:17:36;37.10;55.20
37300;DHT22;23184;51.902;12.836;2022-08-02T13:20:04;37.30;52.70
37300;DHT22;23184;51.902;12.836;2022-08-02T13:22:29;37.00;53.20
37300;DHT22;23184;51.902;12.836;2022-08-02T13:24:55;34.80;58.30
37300;DHT22;23184;51.902;12.836;2022-08-02T13:27:21;32.90;58.00
37300;DHT22;23184;51.902;12.836;2022-08-02T13:29:48;33.70;61.20
37300;DHT22;23184;51.902;12.836;2022-08-02T13:32:13;34.70;59.60
37300;DHT22;23184;51.902;12.836;2022-08-02T13:34:39;35.20;58.50
37300;DHT22;23184;51.902;12.836;2022-08-02T13:37:04;34.40;57.10
37300;DHT22;23184;51.902;12.836;2022-08-02T13:39:30;35.00;57.90
37300;DHT22;23184;51.902;12.836;2022-08-02T13:41:55;36.10;56.20
37300;DHT22;23184;51.902;12.836;2022-08-02T13:44:21;35.30;56.10
37300;DHT22;23184;51.902;12.836;2022-08-02T13:46:46;35.70;56.50
37300;DHT22;23184;51.902;12.836;2022-08-02T13:49:13;35.00;57.30
37300;DHT22;23184;51.902;12.836;2022-08-02T13:51:38;34.30;57.60
37300;DHT22;23184;51.902;12.836;2022-08-02T13:54:04;32.90;58.20
37300;DHT22;23184;51.902;12.836;2022-08-02T13:56:29;34.20;58.50
37300;DHT22;23184;51.902;12.836;2022-08-02T13:58:55;34.20;58.30
37300;DHT22;23184;51.902;12.836;2022-08-02T14:01:23;35.80;57.70
37300;DHT22;23184;51.902;12.836;2022-08-02T14:03:49;36.60;57.10
37300;DHT22;23184;51.902;12.836;2022-08-02T14:06:14;37.20;56.80
37300;DHT22;23184;51.902;12.836;2022-08-02T14:08:40;36.30;54.10
37300;DHT22;23184;51.902;12.836;2022-08-02T14:11:05;35.50;54.40
37300;DHT22;23184;51.902;12.836;2022-08-02T14:13:31;35.40;55.60
37300;DHT22;23184;51.902;12.836;2022-08-02T14:15:56;33.40;54.00
37300;DHT22;23184;51.902;12.836;2022-08-02T14:18:24;32.40;57.00
37300;DHT22;23184;51.902;12.836;2022-08-02T14:20:49;32.30;57.10
37300;DHT22;23184;51.902;12.836;2022-08-02T14:23:15;32.60;58.90
37300;DHT22;23184;51.902;12.836;2022-08-02T14:25:41;32.80;59.40
37300;DHT22;23184;51.902;12.836;2022-08-02T14:28:07;32.80;58.90
37300;DHT22;23184;51.902;12.836;2022-08-02T14:30:33;33.20;58.30
37300;DHT22;23184;51.902;12.836;2022-08-02T14:32:59;33.90;58.40
37300;DHT22;23184;51.902;12.836;2022-08-02T14:35:24;34.80;57.60
37300;DHT22;23184;51.902;12.836;2022-08-02T14:37:50;33.70;58.30
37300;DHT22;23184;51.902;12.836;2022-08-02T14:40:15;33.70;58.40
37300;DHT22;23184;51.902;12.836;2022-08-02T14:42:41;33.70;58.00
37300;DHT22;23184;51.902;12.836;2022-08-02T14:45:07;32.60;58.20
37300;DHT22;23184;51.902;12.836;2022-08-02T14:47:32;32.40;56.70
37300;DHT22;23184;51.902;12.836;2022-08-02T14:49:58;32.70;55.90
37300;DHT22;23184;51.902;12.836;2022-08-02T14:52:23;32.00;58.40
37300;DHT22;23184;51.902;12.836;2022-08-02T14:54:49;30.80;58.60
37300;DHT22;23184;51.902;12.836;2022-08-02T14:57:15;30.30;60.80
37300;DHT22;23184;51.902;12.836;2022-08-02T14:59:40;29.50;63.10
37300;DHT22;23184;51.902;12.836;2022-08-02T15:02:06;29.30;63.60
37300;DHT22;23184;51.902;12.836;2022-08-02T15:04:32;29.60;64.50
37300;DHT22;23184;51.902;12.836;2022-08-02T15:06:59;29.90;66.30
37300;DHT22;23184;51.902;12.836;2022-08-02T15:09:25;29.80;63.40
37300;DHT22;23184;51.902;12.836;2022-08-02T15:11:51;29.90;64.80
37300;DHT22;23184;51.902;12.836;2022-08-02T15:14:18;30.00;63.90
37300;DHT22;23184;51.902;12.836;2022-08-02T15:16:44;29.90;63.70
37300;DHT22;23184;51.902;12.836;2022-08-02T15:19:09;29.90;63.40
37300;DHT22;23184;51.902;12.836;2022-08-02T15:21:35;30.10;65.00
37300;DHT22;23184;51.902;12.836;2022-08-02T15:24:00;30.40;63.40
37300;DHT22;23184;51.902;12.836;2022-08-02T15:26:26;30.60;63.80
37300;DHT22;23184;51.902;12.836;2022-08-02T15:28:51;30.30;65.00
37300;DHT22;23184;51.902;12.836;2022-08-02T15:31:18;30.30;66.40
37300;DHT22;23184;51.902;12.836;2022-08-02T15:33:44;29.70;63.30
37300;DHT22;23184;51.902;12.836;2022-08-02T15:36:10;29.80;64.30
37300;DHT22;23184;51.902;12.836;2022-08-02T15:38:35;29.60;64.90
37300;DHT22;23184;51.902;12.836;2022-08-02T15:41:01;29.70;63.40
37300;DHT22;23184;51.902;12.836;2022-08-02T15:43:27;29.20;64.10
37300;DHT22;23184;51.902;12.836;2022-08-02T15:45:53;29.60;64.60